sensor_id;sensor_type;location;lat;lon;timestamp;temperature;humidity
68804;SHT31;55787;52.678;13.314;2023-08-21T00:01:02;18.17;94.93
68804;SHT31;55787;52.678;13.314;2023-08-21T00:03:29;18.10;94.48
68804;SHT31;55787;52.678;13.314;2023-08-21T00:05:56;18.07;94.76
68804;SHT31;55787;52.678;13.314;2023-08-21T00:08:23;18.03;94.76
68804;SHT31;55787;52.678;13.314;2023-08-21T00:10:50;18.03;94.97
68804;SHT31;55787;52.678;13.314;2023-08-21T00:13:17;18.00;95.28
68804;SHT31;55787;52.678;13.314;2023-08-21T00:15:43;18.03;95.43
68804;SHT31;55787;52.678;13.314;2023-08-21T00:18:10;18.00;95.78
68804;SHT31;55787;52.678;13.314;2023-08-21T00:20:37;17.94;95.52
68804;SHT31;55787;52.678;13.314;2023-08-21T00:23:03;17.94;95.73
68804;SHT31;55787;52.678;13.314;2023-08-21T00:25:30;17.92;95.74
68804;SHT31;55787;52.678;13.314;2023-08-21T00:27:57;17.89;95.77
68804;SHT31;55787;52.678;13.314;2023-08-21T00:30:23;17.87;95.89
68804;SHT31;55787;52.678;13.314;2023-08-21T00:32:50;17.83;96.19
68804;SHT31;55787;52.678;13.314;2023-08-21T00:35:17;17.83;96.08
68804;SHT31;55787;52.678;13.314;2023-08-21T00:37:43;17.79;95.87
68804;SHT31;55787;52.678;13.314;2023-08-21T00:40:10;17.76;96.36
68804;SHT31;55787;52.678;13.314;2023-08-21T00:42:37;17.75;96.49
68804;SHT31;55787;52.678;13.314;2023-08-21T00:45:05;17.76;96.35
68804;SHT31;55787;52.678;13.314;2023-08-21T00:47:35;17.73;96.41
68804;SHT31;55787;52.678;13.314;2023-08-21T00:50:02;17.72;96.62
68804;SHT31;55787;52.678;13.314;2023-08-21T00:52:30;17.71;96.62
68804;SHT31;55787;52.678;13.314;2023-08-21T00:54:57;17.69;96.81
68804;SHT31;55787;52.678;13.314;2023-08-21T00:57:24;17.69;97.03
68804;SHT31;55787;52.678;13.314;2023-08-21T00:59:50;17.68;96.82
68804;SHT31;55787;52.678;13.314;2023-08-21T01:02:17;17.66;97.04
68804;SHT31;55787;52.678;13.314;2023-08-21T01:04:45;17.69;97.08
68804;SHT31;55787;52.678;13.314;2023-08-21T01:07:13;17.71;97.41
68804;SHT31;55787;52.678;13.314;2023-08-21T01:09:46;17.72;97.41
68804;SHT31;55787;52.678;13.314;2023-08-21T01:15:01;17.78;97.49
68804;SHT31;55787;52.678;13.314;2023-08-21T01:17:30;17.85;97.94
68804;SHT31;55787;52.678;13.314;2023-08-21T01:19:58;17.86;97.75
68804;SHT31;55787;52.678;13.314;2023-08-21T01:22:27;17.93;97.84
68804;SHT31;55787;52.678;13.314;2023-08-21T01:24:54;17.90;97.92
68804;SHT31;55787;52.678;13.314;2023-08-21T01:27:21;17.89;97.89
68804;SHT31;55787;52.678;13.314;2023-08-21T01:29:48;17.86;97.87
68804;SHT31;55787;52.678;13.314;2023-08-21T01:32:23;17.83;97.94
68804;SHT31;55787;52.678;13.314;2023-08-21T01:34:51;17.85;98.07
68804;SHT31;55787;52.678;13.314;2023-08-21T01:37:24;17.85;98.06
68804;SHT31;55787;52.678;13.314;2023-08-21T01:39:50;17.82;98.13
68804;SHT31;55787;52.678;13.314;2023-08-21T01:42:17;17.80;98.15
68804;SHT31;55787;52.678;13.314;2023-08-21T01:44:44;17.85;98.57
68804;SHT31;55787;52.678;13.314;2023-08-21T01:47:12;17.86;98.43
68804;SHT31;55787;52.678;13.314;2023-08-21T01:49:39;17.83;98.33
68804;SHT31;55787;52.678;13.314;2023-08-21T01:52:05;17.80;98.23
68804;SHT31;55787;52.678;13.314;2023-08-21T01:54:32;17.85;98.39
68804;SHT31;55787;52.678;13.314;2023-08-21T01:56:59;17.89;98.55
68804;SHT31;55787;52.678;13.314;2023-08-21T01:59:25;17.90;98.43
68804;SHT31;55787;52.678;13.314;2023-08-21T02:01:52;17.92;98.36
68804;SHT31;55787;52.678;13.314;2023-08-21T02:04:20;17.89;98.38
68804;SHT31;55787;52.678;13.314;2023-08-21T02:06:46;17.90;98.31
68804;SHT31;55787;52.678;13.314;2023-08-21T02:09:13;17.93;98.47
68804;SHT31;55787;52.678;13.314;2023-08-21T02:11:40;17.94;98.47
68804;SHT31;55787;52.678;13.314;2023-08-21T02:14:07;17.99;98.59
68804;SHT31;55787;52.678;13.314;2023-08-21T02:16:34;18.01;98.61
68804;SHT31;55787;52.678;13.314;2023-08-21T02:19:00;18.00;98.58
68804;SHT31;55787;52.678;13.314;2023-08-21T02:21:27;18.04;98.50
68804;SHT31;55787;52.678;13.314;2023-08-21T02:23:58;18.00;98.52
68804;SHT31;55787;52.678;13.314;2023-08-21T02:26:25;18.09;98.70
68804;SHT31;55787;52.678;13.314;2023-08-21T02:28:52;18.10;98.59
68804;SHT31;55787;52.678;13.314;2023-08-21T02:31:18;18.10;98.54
68804;SHT31;55787;52.678;13.314;2023-08-21T02:33:46;18.10;98.63
68804;SHT31;55787;52.678;13.314;2023-08-21T02:36:12;18.13;98.60
68804;SHT31;55787;52.678;13.314;2023-08-21T02:38:39;18.17;98.70
68804;SHT31;55787;52.678;13.314;2023-08-21T02:41:05;18.20;98.84
68804;SHT31;55787;52.678;13.314;2023-08-21T02:43:33;18.24;98.84
68804;SHT31;55787;52.678;13.314;2023-08-21T02:46:00;18.30;98.88
68804;SHT31;55787;52.678;13.314;2023-08-21T02:48:26;18.33;98.84
68804;SHT31;55787;52.678;13.314;2023-08-21T02:50:53;18.38;98.91
68804;SHT31;55787;52.678;13.314;2023-08-21T02:53:20;18.40;98.86
68804;SHT31;55787;52.678;13.314;2023-08-21T02:55:46;18.43;98.86
68804;SHT31;55787;52.678;13.314;2023-08-21T02:58:13;18.45;98.73
68804;SHT31;55787;52.678;13.314;2023-08-21T03:00:40;18.47;98.79
68804;SHT31;55787;52.678;13.314;2023-08-21T03:03:06;18.50;98.70
68804;SHT31;55787;52.678;13.314;2023-08-21T03:05:34;18.48;98.79
68804;SHT31;55787;52.678;13.314;2023-08-21T03:08:00;18.51;98.71
68804;SHT31;55787;52.678;13.314;2023-08-21T03:10:27;18.54;98.88
68804;SHT31;55787;52.678;13.314;2023-08-21T03:12:56;18.58;98.86
68804;SHT31;55787;52.678;13.314;2023-08-21T03:15:22;18.60;98.60
68804;SHT31;55787;52.678;13.314;2023-08-21T03:17:49;18.57;98.64
68804;SHT31;55787;52.678;13.314;2023-08-21T03:20:16;18.51;98.68
68804;SHT31;55787;52.678;13.314;2023-08-21T03:22:44;18.48;98.44
68804;SHT31;55787;52.678;13.314;2023-08-21T03:25:10;18.40;98.58
68804;SHT31;55787;52.678;13.314;2023-08-21T03:27:37;18.37;98.54
68804;SHT31;55787;52.678;13.314;2023-08-21T03:30:06;18.31;98.59
68804;SHT31;55787;52.678;13.314;2023-08-21T03:32:36;18.30;98.84
68804;SHT31;55787;52.678;13.314;2023-08-21T03:35:03;18.29;98.82
68804;SHT31;55787;52.678;13.314;2023-08-21T03:37:30;18.24;98.67
68804;SHT31;55787;52.678;13.314;2023-08-21T03:39:56;18.21;98.78
68804;SHT31;55787;52.678;13.314;2023-08-21T03:42:23;18.18;98.73
68804;SHT31;55787;52.678;13.314;2023-08-21T03:44:50;18.16;98.77
68804;SHT31;55787;52.678;13.314;2023-08-21T03:47:16;18.16;98.83
68804;SHT31;55787;52.678;13.314;2023-08-21T03:49:43;18.13;98.86
68804;SHT31;55787;52.678;13.314;2023-08-21T03:52:10;18.10;98.60
68804;SHT31;55787;52.678;13.314;2023-08-21T03:54:37;18.07;98.95
68804;SHT31;55787;52.678;13.314;2023-08-21T03:57:04;18.10;98.70
68804;SHT31;55787;52.678;13.314;2023-08-21T03:59:30;18.06;98.85
68804;SHT31;55787;52.678;13.314;2023-08-21T04:01:57;18.04;98.75
68804;SHT31;55787;52.678;13.314;2023-08-21T04:04:23;18.01;98.77
68804;SHT31;55787;52.678;13.314;2023-08-21T04:06:50;17.97;98.71
68804;SHT31;55787;52.678;13.314;2023-08-21T04:09:17;17.94;98.76
68804;SHT31;55787;52.678;13.314;2023-08-21T04:11:43;17.97;98.79
68804;SHT31;55787;52.678;13.314;2023-08-21T04:14:10;17.99;99.18
68804;SHT31;55787;52.678;13.314;2023-08-21T04:16:37;18.00;99.01
68804;SHT31;55787;52.678;13.314;2023-08-21T04:19:05;18.00;98.93
68804;SHT31;55787;52.678;13.314;2023-08-21T04:21:32;18.01;99.33
68804;SHT31;55787;52.678;13.314;2023-08-21T04:23:59;18.10;99.37
68804;SHT31;55787;52.678;13.314;2023-08-21T04:26:26;18.23;99.37
68804;SHT31;55787;52.678;13.314;2023-08-21T04:28:53;18.34;99.31
68804;SHT31;55787;52.678;13.314;2023-08-21T04:31:20;18.36;99.28
68804;SHT31;55787;52.678;13.314;2023-08-21T04:33:47;18.37;99.18
68804;SHT31;55787;52.678;13.314;2023-08-21T04:36:15;18.37;99.13
68804;SHT31;55787;52.678;13.314;2023-08-21T04:38:42;18.34;98.97
68804;SHT31;55787;52.678;13.314;2023-08-21T04:41:10;18.33;99.13
68804;SHT31;55787;52.678;13.314;2023-08-21T04:43:36;18.33;99.13
68804;SHT31;55787;52.678;13.314;2023-08-21T04:46:04;18.31;99.02
68804;SHT31;55787;52.678;13.314;2023-08-21T04:48:31;18.33;99.03
68804;SHT31;55787;52.678;13.314;2023-08-21T04:50:57;18.37;99.01
68804;SHT31;55787;52.678;13.314;2023-08-21T04:53:24;18.38;98.98
68804;SHT31;55787;52.678;13.314;2023-08-21T04:55:50;18.47;98.85
68804;SHT31;55787;52.678;13.314;2023-08-21T04:58:17;18.50;98.74
68804;SHT31;55787;52.678;13.314;2023-08-21T05:00:44;18.58;98.64
68804;SHT31;55787;52.678;13.314;2023-08-21T05:03:12;18.61;98.60
68804;SHT31;55787;52.678;13.314;2023-08-21T05:05:39;18.65;98.21
68804;SHT31;55787;52.678;13.314;2023-08-21T05:08:06;18.69;98.15
68804;SHT31;55787;52.678;13.314;2023-08-21T05:10:32;18.75;98.23
68804;SHT31;55787;52.678;13.314;2023-08-21T05:12:59;18.79;98.04
68804;SHT31;55787;52.678;13.314;2023-08-21T05:15:26;18.78;98.07
68804;SHT31;55787;52.678;13.314;2023-08-21T05:17:52;18.85;98.10
68804;SHT31;55787;52.678;13.314;2023-08-21T05:20:19;18.88;98.08
68804;SHT31;55787;52.678;13.314;2023-08-21T05:22:46;18.96;97.95
68804;SHT31;55787;52.678;13.314;2023-08-21T05:25:13;19.09;97.67
68804;SHT31;55787;52.678;13.314;2023-08-21T05:27:40;19.22;97.57
68804;SHT31;55787;52.678;13.314;2023-08-21T05:30:07;19.34;97.29
68804;SHT31;55787;52.678;13.314;2023-08-21T05:32:33;19.47;96.71
68804;SHT31;55787;52.678;13.314;2023-08-21T05:35:00;19.49;96.26
68804;SHT31;55787;52.678;13.314;2023-08-21T05:37:27;19.47;95.97
68804;SHT31;55787;52.678;13.314;2023-08-21T05:39:53;19.56;95.56
68804;SHT31;55787;52.678;13.314;2023-08-21T05:42:20;19.64;95.76
68804;SHT31;55787;52.678;13.314;2023-08-21T05:44:47;19.69;95.58
68804;SHT31;55787;52.678;13.314;2023-08-21T05:47:14;19.64;95.19
68804;SHT31;55787;52.678;13.314;2023-08-21T05:49:40;19.69;95.27
68804;SHT31;55787;52.678;13.314;2023-08-21T05:52:09;20.05;94.20
68804;SHT31;55787;52.678;13.314;2023-08-21T05:54:35;21.15;91.08
68804;SHT31;55787;52.678;13.314;2023-08-21T05:57:03;22.30;86.08
68804;SHT31;55787;52.678;13.314;2023-08-21T05:59:31;23.28;82.37
68804;SHT31;55787;52.678;13.314;2023-08-21T06:01:58;23.93;79.51
68804;SHT31;55787;52.678;13.314;2023-08-21T06:04:25;24.54;76.48
68804;SHT31;55787;52.678;13.314;2023-08-21T06:06:53;25.07;73.99
68804;SHT31;55787;52.678;13.314;2023-08-21T06:09:20;25.64;72.68
68804;SHT31;55787;52.678;13.314;2023-08-21T06:11:47;25.68;72.49
68804;SHT31;55787;52.678;13.314;2023-08-21T06:14:13;26.02;71.46
68804;SHT31;55787;52.678;13.314;2023-08-21T06:16:40;26.37;70.95
68804;SHT31;55787;52.678;13.314;2023-08-21T06:19:07;26.67;68.56
68804;SHT31;55787;52.678;13.314;2023-08-21T06:21:34;26.88;67.92
68804;SHT31;55787;52.678;13.314;2023-08-21T06:24:00;27.23;67.16
68804;SHT31;55787;52.678;13.314;2023-08-21T06:26:27;27.24;66.35
68804;SHT31;55787;52.678;13.314;2023-08-21T06:28:54;27.70;66.16
68804;SHT31;55787;52.678;13.314;2023-08-21T06:31:20;27.83;65.14
68804;SHT31;55787;52.678;13.314;2023-08-21T06:33:47;28.07;64.95
68804;SHT31;55787;52.678;13.314;2023-08-21T06:36:14;27.51;64.87
68804;SHT31;55787;52.678;13.314;2023-08-21T06:38:41;26.74;67.55
68804;SHT31;55787;52.678;13.314;2023-08-21T06:41:07;26.56;68.26
68804;SHT31;55787;52.678;13.314;2023-08-21T06:43:38;26.25;69.99
68804;SHT31;55787;52.678;13.314;2023-08-21T06:46:08;25.10;72.39
68804;SHT31;55787;52.678;13.314;2023-08-21T06:48:38;24.57;74.68
68804;SHT31;55787;52.678;13.314;2023-08-21T06:51:05;24.61;75.44
68804;SHT31;55787;52.678;13.314;2023-08-21T06:53:32;24.41;75.57
68804;SHT31;55787;52.678;13.314;2023-08-21T06:55:59;24.64;74.55
68804;SHT31;55787;52.678;13.314;2023-08-21T06:58:26;25.61;71.75
68804;SHT31;55787;52.678;13.314;2023-08-21T07:00:56;27.11;68.34
68804;SHT31;55787;52.678;13.314;2023-08-21T07:03:23;27.27;67.12
68804;SHT31;55787;52.678;13.314;2023-08-21T07:05:56;26.64;68.28
68804;SHT31;55787;52.678;13.314;2023-08-21T07:08:24;25.58;70.93
68804;SHT31;55787;52.678;13.314;2023-08-21T07:10:51;25.68;70.80
68804;SHT31;55787;52.678;13.314;2023-08-21T07:13:19;25.22;71.46
68804;SHT31;55787;52.678;13.314;2023-08-21T07:15:46;26.28;68.63
68804;SHT31;55787;52.678;13.314;2023-08-21T07:18:14;27.46;66.46
68804;SHT31;55787;52.678;13.314;2023-08-21T07:20:40;29.34;62.25
68804;SHT31;55787;52.678;13.314;2023-08-21T07:23:07;30.04;57.99
68804;SHT31;55787;52.678;13.314;2023-08-21T07:25:34;30.69;56.17
68804;SHT31;55787;52.678;13.314;2023-08-21T07:28:01;31.26;53.56
68804;SHT31;55787;52.678;13.314;2023-08-21T07:30:27;31.35;53.81
68804;SHT31;55787;52.678;13.314;2023-08-21T07:32:54;31.52;51.54
68804;SHT31;55787;52.678;13.314;2023-08-21T07:35:21;31.21;52.09
68804;SHT31;55787;52.678;13.314;2023-08-21T07:37:48;31.62;51.79
68804;SHT31;55787;52.678;13.314;2023-08-21T07:40:15;32.09;50.69
68804;SHT31;55787;52.678;13.314;2023-08-21T07:42:41;32.50;50.10
68804;SHT31;55787;52.678;13.314;2023-08-21T07:45:08;32.43;49.95
68804;SHT31;55787;52.678;13.314;2023-08-21T07:47:35;33.06;47.15
68804;SHT31;55787;52.678;13.314;2023-08-21T07:50:05;33.44;46.81
68804;SHT31;55787;52.678;13.314;2023-08-21T07:52:32;33.96;45.28
68804;SHT31;55787;52.678;13.314;2023-08-21T07:54:59;34.67;44.01
68804;SHT31;55787;52.678;13.314;2023-08-21T07:57:27;34.65;43.65
68804;SHT31;55787;52.678;13.314;2023-08-21T07:59:57;34.87;41.92
68804;SHT31;55787;52.678;13.314;2023-08-21T08:02:24;34.98;41.02
68804;SHT31;55787;52.678;13.314;2023-08-21T08:04:51;34.84;41.40
68804;SHT31;55787;52.678;13.314;2023-08-21T08:07:17;33.03;43.84
68804;SHT31;55787;52.678;13.314;2023-08-21T08:09:44;31.27;49.12
68804;SHT31;55787;52.678;13.314;2023-08-21T08:12:11;31.11;48.52
68804;SHT31;55787;52.678;13.314;2023-08-21T08:14:37;31.93;45.61
68804;SHT31;55787;52.678;13.314;2023-08-21T08:17:04;32.88;44.43
68804;SHT31;55787;52.678;13.314;2023-08-21T08:19:31;31.84;45.55
68804;SHT31;55787;52.678;13.314;2023-08-21T08:21:57;31.27;46.26
68804;SHT31;55787;52.678;13.314;2023-08-21T08:24:24;31.65;44.16
68804;SHT31;55787;52.678;13.314;2023-08-21T08:26:51;31.11;42.00
68804;SHT31;55787;52.678;13.314;2023-08-21T08:29:17;31.35;42.28
68804;SHT31;55787;52.678;13.314;2023-08-21T08:31:44;30.59;43.69
68804;SHT31;55787;52.678;13.314;2023-08-21T08:34:11;31.92;40.40
68804;SHT31;55787;52.678;13.314;2023-08-21T08:36:37;33.37;40.58
68804;SHT31;55787;52.678;13.314;2023-08-21T08:39:04;33.17;39.83
68804;SHT31;55787;52.678;13.314;2023-08-21T08:41:58;33.90;41.62
68804;SHT31;55787;52.678;13.314;2023-08-21T08:44:29;33.45;39.40
68804;SHT31;55787;52.678;13.314;2023-08-21T08:46:56;33.63;40.31
68804;SHT31;55787;52.678;13.314;2023-08-21T08:49:23;32.97;41.91
68804;SHT31;55787;52.678;13.314;2023-08-21T08:51:50;31.95;41.28
68804;SHT31;55787;52.678;13.314;2023-08-21T08:54:18;31.71;43.71
68804;SHT31;55787;52.678;13.314;2023-08-21T08:56:46;31.77;43.17
68804;SHT31;55787;52.678;13.314;2023-08-21T08:59:15;31.29;44.64
68804;SHT31;55787;52.678;13.314;2023-08-21T09:01:42;30.87;46.30
68804;SHT31;55787;52.678;13.314;2023-08-21T09:04:09;30.29;46.18
68804;SHT31;55787;52.678;13.314;2023-08-21T09:06:36;30.82;45.26
68804;SHT31;55787;52.678;13.314;2023-08-21T09:09:03;32.06;42.41
68804;SHT31;55787;52.678;13.314;2023-08-21T09:11:32;31.62;43.83
68804;SHT31;55787;52.678;13.314;2023-08-21T09:14:00;30.84;45.14
68804;SHT31;55787;52.678;13.314;2023-08-21T09:16:26;30.17;46.26
68804;SHT31;55787;52.678;13.314;2023-08-21T09:18:55;29.80;46.78
68804;SHT31;55787;52.678;13.314;2023-08-21T09:21:26;30.28;45.32
68804;SHT31;55787;52.678;13.314;2023-08-21T09:23:59;31.48;44.15
68804;SHT31;55787;52.678;13.314;2023-08-21T09:26:26;31.45;43.76
68804;SHT31;55787;52.678;13.314;2023-08-21T09:28:53;31.57;45.61
68804;SHT31;55787;52.678;13.314;2023-08-21T09:31:29;32.64;44.03
68804;SHT31;55787;52.678;13.314;2023-08-21T09:34:00;34.15;40.09
68804;SHT31;55787;52.678;13.314;2023-08-21T09:36:27;34.58;39.71
68804;SHT31;55787;52.678;13.314;2023-08-21T09:38:54;35.09;39.48
68804;SHT31;55787;52.678;13.314;2023-08-21T09:41:22;35.43;39.03
68804;SHT31;55787;52.678;13.314;2023-08-21T09:43:49;34.33;39.24
68804;SHT31;55787;52.678;13.314;2023-08-21T09:46:17;33.08;40.39
68804;SHT31;55787;52.678;13.314;2023-08-21T09:48:51;31.72;40.47
68804;SHT31;55787;52.678;13.314;2023-08-21T09:51:18;29.84;42.31
68804;SHT31;55787;52.678;13.314;2023-08-21T09:53:45;29.25;45.86
68804;SHT31;55787;52.678;13.314;2023-08-21T09:56:12;29.72;44.39
68804;SHT31;55787;52.678;13.314;2023-08-21T09:58:39;29.69;43.96
68804;SHT31;55787;52.678;13.314;2023-08-21T10:01:07;30.04;44.51
68804;SHT31;55787;52.678;13.314;2023-08-21T10:03:40;30.93;44.99
68804;SHT31;55787;52.678;13.314;2023-08-21T10:06:09;30.78;46.50
68804;SHT31;55787;52.678;13.314;2023-08-21T10:08:38;30.12;43.84
68804;SHT31;55787;52.678;13.314;2023-08-21T10:11:08;30.31;48.47
68804;SHT31;55787;52.678;13.314;2023-08-21T10:13:37;30.04;49.86
68804;SHT31;55787;52.678;13.314;2023-08-21T10:16:05;29.69;50.05
68804;SHT31;55787;52.678;13.314;2023-08-21T10:18:35;29.47;49.38
68804;SHT31;55787;52.678;13.314;2023-08-21T10:21:18;29.34;49.99
68804;SHT31;55787;52.678;13.314;2023-08-21T10:23:51;29.26;51.35
68804;SHT31;55787;52.678;13.314;2023-08-21T10:26:21;29.15;49.99
68804;SHT31;55787;52.678;13.314;2023-08-21T10:28:59;29.34;51.12
68804;SHT31;55787;52.678;13.314;2023-08-21T10:33:53;32.04;46.45
68804;SHT31;55787;52.678;13.314;2023-08-21T10:39:24;34.15;36.67
68804;SHT31;55787;52.678;13.314;2023-08-21T10:41:55;33.47;40.24
68804;SHT31;55787;52.678;13.314;2023-08-21T10:47:37;31.82;41.74
68804;SHT31;55787;52.678;13.314;2023-08-21T10:50:05;31.16;44.91
68804;SHT31;55787;52.678;13.314;2023-08-21T10:52:41;30.42;43.87
68804;SHT31;55787;52.678;13.314;2023-08-21T10:55:15;30.04;44.85
68804;SHT31;55787;52.678;13.314;2023-08-21T10:57:42;30.58;44.03
68804;SHT31;55787;52.678;13.314;2023-08-21T11:00:11;30.78;41.80
68804;SHT31;55787;52.678;13.314;2023-08-21T11:02:44;30.53;42.70
68804;SHT31;55787;52.678;13.314;2023-08-21T11:05:12;30.52;45.83
68804;SHT31;55787;52.678;13.314;2023-08-21T11:07:45;30.72;45.55
68804;SHT31;55787;52.678;13.314;2023-08-21T11:10:14;30.14;42.15
68804;SHT31;55787;52.678;13.314;2023-08-21T11:12:54;30.15;43.87
68804;SHT31;55787;52.678;13.314;2023-08-21T11:15:27;29.90;44.32
68804;SHT31;55787;52.678;13.314;2023-08-21T11:17:59;30.20;45.46
68804;SHT31;55787;52.678;13.314;2023-08-21T11:20:36;30.25;44.84
68804;SHT31;55787;52.678;13.314;2023-08-21T11:23:05;30.01;43.82
68804;SHT31;55787;52.678;13.314;2023-08-21T11:25:37;30.58;47.23
68804;SHT31;55787;52.678;13.314;2023-08-21T11:28:05;30.55;45.48
68804;SHT31;55787;52.678;13.314;2023-08-21T11:30:32;30.46;46.78
68804;SHT31;55787;52.678;13.314;2023-08-21T11:33:12;30.14;46.37
68804;SHT31;55787;52.678;13.314;2023-08-21T11:35:40;30.25;47.19
68804;SHT31;55787;52.678;13.314;2023-08-21T11:38:14;30.20;48.19
68804;SHT31;55787;52.678;13.314;2023-08-21T11:40:41;30.08;47.30
68804;SHT31;55787;52.678;13.314;2023-08-21T11:43:08;30.36;48.40
68804;SHT31;55787;52.678;13.314;2023-08-21T11:45:35;30.48;45.62
68804;SHT31;55787;52.678;13.314;2023-08-21T11:48:22;30.43;47.57
68804;SHT31;55787;52.678;13.314;2023-08-21T11:50:49;30.32;47.41
68804;SHT31;55787;52.678;13.314;2023-08-21T11:53:32;30.48;46.97
68804;SHT31;55787;52.678;13.314;2023-08-21T11:55:59;30.29;46.97
68804;SHT31;55787;52.678;13.314;2023-08-21T11:58:27;30.18;47.26
68804;SHT31;55787;52.678;13.314;2023-08-21T12:01:03;29.83;49.04
68804;SHT31;55787;52.678;13.314;2023-08-21T12:03:36;29.64;47.70
68804;SHT31;55787;52.678;13.314;2023-08-21T12:06:12;29.34;48.14
68804;SHT31;55787;52.678;13.314;2023-08-21T12:08:39;29.09;49.32
68804;SHT31;55787;52.678;13.314;2023-08-21T12:11:07;29.36;48.49
68804;SHT31;55787;52.678;13.314;2023-08-21T12:13:34;29.62;48.20
68804;SHT31;55787;52.678;13.314;2023-08-21T12:16:02;29.81;46.54
68804;SHT31;55787;52.678;13.314;2023-08-21T12:18:29;30.84;46.36
68804;SHT31;55787;52.678;13.314;2023-08-21T12:20:56;32.04;42.90
68804;SHT31;55787;52.678;13.314;2023-08-21T12:23:23;32.87;39.62
68804;SHT31;55787;52.678;13.314;2023-08-21T12:25:50;32.90;39.36
68804;SHT31;55787;52.678;13.314;2023-08-21T12:28:17;32.20;41.16
68804;SHT31;55787;52.678;13.314;2023-08-21T12:30:43;31.67;38.36
68804;SHT31;55787;52.678;13.314;2023-08-21T12:33:10;31.81;38.35
68804;SHT31;55787;52.678;13.314;2023-08-21T12:35:50;31.57;39.40
68804;SHT31;55787;52.678;13.314;2023-08-21T12:38:16;29.76;40.09
68804;SHT31;55787;52.678;13.314;2023-08-21T12:40:43;31.26;38.00
68804;SHT31;55787;52.678;13.314;2023-08-21T12:43:10;32.69;38.55
68804;SHT31;55787;52.678;13.314;2023-08-21T12:45:37;31.91;36.11
68804;SHT31;55787;52.678;13.314;2023-08-21T12:48:04;30.68;37.43
68804;SHT31;55787;52.678;13.314;2023-08-21T12:50:31;32.06;39.34
68804;SHT31;55787;52.678;13.314;2023-08-21T12:52:57;33.48;39.29
68804;SHT31;55787;52.678;13.314;2023-08-21T12:55:24;34.39;37.74
68804;SHT31;55787;52.678;13.314;2023-08-21T12:57:51;34.41;36.82
68804;SHT31;55787;52.678;13.314;2023-08-21T13:00:18;34.90;37.31
68804;SHT31;55787;52.678;13.314;2023-08-21T13:02:44;34.70;35.70
68804;SHT31;55787;52.678;13.314;2023-08-21T13:05:11;33.90;34.37
68804;SHT31;55787;52.678;13.314;2023-08-21T13:07:38;33.27;35.73
68804;SHT31;55787;52.678;13.314;2023-08-21T13:10:05;32.80;36.18
68804;SHT31;55787;52.678;13.314;2023-08-21T13:12:32;32.41;38.42
68804;SHT31;55787;52.678;13.314;2023-08-21T13:14:58;32.22;39.25
68804;SHT31;55787;52.678;13.314;2023-08-21T13:17:25;31.57;41.00
68804;SHT31;55787;52.678;13.314;2023-08-21T13:19:52;32.13;37.29
68804;SHT31;55787;52.678;13.314;2023-08-21T13:22:19;32.59;37.17
68804;SHT31;55787;52.678;13.314;2023-08-21T13:24:45;33.01;38.65
68804;SHT31;55787;52.678;13.314;2023-08-21T13:27:12;32.79;36.01
68804;SHT31;55787;52.678;13.314;2023-08-21T13:29:39;32.36;36.34
68804;SHT31;55787;52.678;13.314;2023-08-21T13:32:06;33.32;37.92
68804;SHT31;55787;52.678;13.314;2023-08-21T13:34:33;33.41;36.65
68804;SHT31;55787;52.678;13.314;2023-08-21T13:37:00;33.86;38.67
68804;SHT31;55787;52.678;13.314;2023-08-21T13:39:26;34.28;35.47
68804;SHT31;55787;52.678;13.314;2023-08-21T13:41:53;33.32;36.82
68804;SHT31;55787;52.678;13.314;2023-08-21T13:44:20;33.88;37.84
68804;SHT31;55787;52.678;13.314;2023-08-21T13:46:46;32.63;38.73
68804;SHT31;55787;52.678;13.314;2023-08-21T13:49:13;31.65;41.22
68804;SHT31;55787;52.678;13.314;2023-08-21T13:51:39;30.52;43.25
68804;SHT31;55787;52.678;13.314;2023-08-21T13:54:07;30.36;45.71
68804;SHT31;55787;52.678;13.314;2023-08-21T13:56:33;30.28;45.92
68804;SHT31;55787;52.678;13.314;2023-08-21T13:59:00;30.21;45.38
68804;SHT31;55787;52.678;13.314;2023-08-21T14:01:27;30.49;45.12
68804;SHT31;55787;52.678;13.314;2023-08-21T14:03:54;30.94;47.89
68804;SHT31;55787;52.678;13.314;2023-08-21T14:06:20;31.09;43.11
68804;SHT31;55787;52.678;13.314;2023-08-21T14:08:47;31.47;43.69
68804;SHT31;55787;52.678;13.314;2023-08-21T14:11:14;31.52;43.11
68804;SHT31;55787;52.678;13.314;2023-08-21T14:13:40;31.34;41.68
68804;SHT31;55787;52.678;13.314;2023-08-21T14:16:07;31.24;40.48
68804;SHT31;55787;52.678;13.314;2023-08-21T14:18:34;30.29;40.37
68804;SHT31;55787;52.678;13.314;2023-08-21T14:21:00;30.59;44.97
68804;SHT31;55787;52.678;13.314;2023-08-21T14:23:27;30.84;44.57
68804;SHT31;55787;52.678;13.314;2023-08-21T14:25:56;30.36;44.70
68804;SHT31;55787;52.678;13.314;2023-08-21T14:28:22;29.87;42.96
68804;SHT31;55787;52.678;13.314;2023-08-21T14:30:49;30.15;45.10
68804;SHT31;55787;52.678;13.314;2023-08-21T14:33:18;30.45;44.40
68804;SHT31;55787;52.678;13.314;2023-08-21T14:35:45;30.07;40.97
68804;SHT31;55787;52.678;13.314;2023-08-21T14:38:11;29.23;44.40
68804;SHT31;55787;52.678;13.314;2023-08-21T14:40:39;29.64;45.59
68804;SHT31;55787;52.678;13.314;2023-08-21T14:43:06;29.77;44.17
68804;SHT31;55787;52.678;13.314;2023-08-21T14:45:32;29.84;44.11
68804;SHT31;55787;52.678;13.314;2023-08-21T14:47:59;29.88;44.47
68804;SHT31;55787;52.678;13.314;2023-08-21T14:50:26;30.00;46.20
68804;SHT31;55787;52.678;13.314;2023-08-21T14:52:52;29.85;43.31
68804;SHT31;55787;52.678;13.314;2023-08-21T14:55:19;29.62;41.45
68804;SHT31;55787;52.678;13.314;2023-08-21T14:57:46;29.37;44.09
68804;SHT31;55787;52.678;13.314;2023-08-21T15:00:13;29.52;46.20
68804;SHT31;55787;52.678;13.314;2023-08-21T15:02:41;29.39;45.19
68804;SHT31;55787;52.678;13.314;2023-08-21T15:05:08;29.25;43.87
68804;SHT31;55787;52.678;13.314;2023-08-21T15:07:35;29.29;46.31
68804;SHT31;55787;52.678;13.314;2023-08-21T15:10:03;29.20;46.77
68804;SHT31;55787;52.678;13.314;2023-08-21T15:12:30;29.05;47.81
68804;SHT31;55787;52.678;13.314;2023-08-21T15:14:56;29.03;47.88
68804;SHT31;55787;52.678;13.314;2023-08-21T15:17:23;28.75;45.98
68804;SHT31;55787;52.678;13.314;2023-08-21T15:19:49;28.78;45.35
68804;SHT31;55787;52.678;13.314;2023-08-21T15:22:17;28.67;46.28
68804;SHT31;55787;52.678;13.314;2023-08-21T15:24:44;28.53;48.38
68804;SHT31;55787;52.678;13.314;2023-08-21T15:27:11;28.45;47.54
68804;SHT31;55787;52.678;13.314;2023-08-21T15:29:40;28.44;47.33